createdAt,value
2018-05-16T00:00:38.567Z,92.73
2018-05-16T00:01:38.756Z,93.16
2018-05-16T00:02:38.963Z,92.78
2018-05-16T00:03:39.163Z,92.97
2018-05-16T00:04:39.360Z,92.63
2018-05-16T00:05:39.544Z,92.44
2018-05-16T00:06:39.738Z,92.35
2018-05-16T00:07:39.915Z,92.73
2018-05-16T00:08:40.108Z,93.64
2018-05-16T00:09:40.317Z,92.78
2018-05-16T00:10:40.522Z,92.59
2018-05-16T00:11:40.747Z,92.40
2018-05-16T00:12:40.998Z,92.59
2018-05-16T00:13:41.077Z,92.69
2018-05-16T00:14:45.261Z,92.88
2018-05-16T00:15:41.404Z,92.69
2018-05-16T00:16:41.492Z,93.55
2018-05-16T00:17:41.695Z,92.97
2018-05-16T00:18:41.925Z,92.40
2018-05-16T00:19:42.028Z,91.06
2018-05-16T00:20:42.204Z,91.35
2018-05-16T00:21:42.413Z,91.63
2018-05-16T00:22:42.614Z,92.30
2018-05-16T00:23:42.844Z,91.92
2018-05-16T00:24:43.021Z,92.30
2018-05-16T00:25:43.226Z,92.49
2018-05-16T00:26:43.414Z,92.59
2018-05-16T00:27:43.607Z,91.63
2018-05-16T00:28:43.805Z,91.63
2018-05-16T00:29:43.990Z,91.06
2018-05-16T00:30:44.181Z,91.63
2018-05-16T00:31:44.358Z,91.83
2018-05-16T00:32:44.535Z,91.53
2018-05-16T00:33:44.737Z,91.35
2018-05-16T00:34:44.953Z,91.35
2018-05-16T00:35:45.161Z,91.44
2018-05-16T00:36:45.356Z,91.83
2018-05-16T00:37:45.570Z,91.83
2018-05-16T00:38:45.802Z,91.73
2018-05-16T00:39:45.875Z,91.35
2018-05-16T00:40:46.110Z,91.63
2018-05-16T00:41:46.197Z,91.83
2018-05-16T00:42:46.393Z,92.40
2018-05-16T00:43:46.617Z,91.83
2018-05-16T00:44:46.842Z,91.83
2018-05-16T00:45:46.917Z,92.11
2018-05-16T00:46:47.103Z,91.63
2018-05-16T00:47:47.308Z,91.92
2018-05-16T00:48:47.499Z,91.63
2018-05-16T00:49:47.756Z,91.25
2018-05-16T00:50:47.832Z,91.16
2018-05-16T00:51:48.023Z,91.44
2018-05-16T00:52:48.209Z,91.92
2018-05-16T00:53:48.410Z,92.69
2018-05-16T00:54:48.625Z,91.35
2018-05-16T00:55:48.720Z,91.16
2018-05-16T00:56:48.935Z,91.16
2018-05-16T00:57:49.113Z,91.39
2018-05-16T00:58:49.331Z,91.83
2018-05-16T00:59:49.557Z,91.73
2018-05-16T01:00:49.741Z,91.88
2018-05-16T01:01:49.917Z,91.59
2018-05-16T01:02:50.098Z,91.68
2018-05-16T01:03:50.367Z,92.45
2018-05-16T01:04:50.460Z,91.59
2018-05-16T01:05:50.636Z,91.63
2018-05-16T01:06:50.813Z,91.59
2018-05-16T01:07:50.997Z,91.39
2018-05-16T01:08:51.188Z,91.39
2018-05-16T01:09:51.366Z,91.68
2018-05-16T01:10:51.536Z,92.07
2018-05-16T01:11:51.715Z,91.68
2018-05-16T01:12:51.906Z,91.49
2018-05-16T01:13:52.099Z,91.88
2018-05-16T01:14:52.304Z,92.64
2018-05-16T01:15:52.515Z,92.83
2018-05-16T01:16:52.775Z,92.35
2018-05-16T01:17:52.856Z,92.16
2018-05-16T01:18:53.055Z,91.88
2018-05-16T01:19:53.248Z,92.45
2018-05-16T01:20:53.475Z,92.45
2018-05-16T01:21:53.582Z,91.78
2018-05-16T01:22:53.770Z,92.54
2018-05-16T01:23:53.963Z,92.83
2018-05-16T01:24:54.213Z,92.93
2018-05-16T01:25:54.299Z,92.54
2018-05-16T01:26:54.497Z,92.83
2018-05-16T01:27:54.744Z,92.45
2018-05-16T01:28:54.834Z,91.78
2018-05-16T01:29:55.028Z,91.68
2018-05-16T01:30:55.220Z,91.88
2018-05-16T01:31:55.412Z,91.88
2018-05-16T01:32:55.593Z,91.88
2018-05-16T01:33:55.795Z,91.30
2018-05-16T01:34:56.013Z,90.67
2018-05-16T01:35:56.201Z,90.63
2018-05-16T01:36:56.456Z,91.25
2018-05-16T01:37:56.562Z,91.35
2018-05-16T01:38:56.658Z,91.44
2018-05-16T01:39:56.877Z,91.83
2018-05-16T01:40:57.091Z,91.59
2018-05-16T01:41:57.168Z,92.40
2018-05-16T01:42:57.372Z,92.49
2018-05-16T01:43:57.587Z,91.63
2018-05-16T01:44:57.792Z,91.49
2018-05-16T01:45:58.003Z,91.25
2018-05-16T01:46:58.216Z,91.49
2018-05-16T01:47:58.433Z,91.39
2018-05-16T01:48:58.671Z,91.78
2018-05-16T01:49:58.744Z,92.25
2018-05-16T01:50:58.960Z,91.59
2018-05-16T01:51:59.148Z,92.35
2018-05-16T01:52:59.344Z,91.49
2018-05-16T01:53:59.589Z,91.88
2018-05-16T01:54:59.662Z,91.49
2018-05-16T01:55:59.855Z,92.16
2018-05-16T01:57:00.034Z,92.35
2018-05-16T01:58:00.225Z,92.93
2018-05-16T01:59:00.428Z,93.02
2018-05-16T02:00:00.607Z,93.02
2018-05-16T02:01:00.784Z,92.35
2018-05-16T02:02:00.979Z,92.64
2018-05-16T02:03:01.168Z,92.25
2018-05-16T02:04:01.367Z,92.35
2018-05-16T02:05:01.588Z,92.16
2018-05-16T02:06:01.670Z,92.16
2018-05-16T02:07:01.854Z,92.35
2018-05-16T02:08:02.062Z,92.64
2018-05-16T02:09:02.304Z,92.45
2018-05-16T02:10:02.389Z,92.54
2018-05-16T02:11:02.590Z,93.12
2018-05-16T02:12:02.783Z,93.69
2018-05-16T02:13:02.975Z,92.83
2018-05-16T02:14:03.190Z,93.02
2018-05-16T02:15:03.427Z,92.83
2018-05-16T02:16:03.499Z,92.93
2018-05-16T02:17:03.710Z,92.64
2018-05-16T02:18:03.931Z,92.16
2018-05-16T02:19:04.116Z,92.35
2018-05-16T02:20:04.305Z,92.35
2018-05-16T02:21:04.498Z,92.64
2018-05-16T02:22:04.678Z,91.68
2018-05-16T02:23:04.858Z,91.78
2018-05-16T02:24:05.030Z,91.68
2018-05-16T02:25:05.221Z,91.97
2018-05-16T02:26:05.406Z,91.49
2018-05-16T02:27:05.599Z,91.68
2018-05-16T02:28:05.804Z,92.45
2018-05-16T02:29:06.001Z,91.49
2018-05-16T02:30:06.198Z,91.78
2018-05-16T02:31:06.385Z,92.35
2018-05-16T02:32:06.572Z,91.59
2018-05-16T02:33:06.793Z,91.59
2018-05-16T02:34:06.854Z,91.30
2018-05-16T02:35:07.060Z,91.49
2018-05-16T02:36:07.246Z,92.64
2018-05-16T02:37:07.455Z,92.45
2018-05-16T02:38:07.660Z,92.16
2018-05-16T02:39:07.858Z,92.45
2018-05-16T02:40:08.037Z,92.54
2018-05-16T02:41:08.245Z,91.78
2018-05-16T02:42:08.419Z,91.78
2018-05-16T02:43:08.619Z,91.49
2018-05-16T02:44:08.824Z,91.68
2018-05-16T02:45:09.056Z,91.68
2018-05-16T02:46:09.138Z,91.88
2018-05-16T02:47:09.332Z,91.49
2018-05-16T02:48:09.529Z,91.49
2018-05-16T02:49:09.704Z,91.78
2018-05-16T02:50:09.932Z,91.59
2018-05-16T02:51:10.122Z,91.39
2018-05-16T02:52:10.319Z,91.49
2018-05-16T02:53:10.526Z,91.35
2018-05-16T02:54:10.720Z,91.59
2018-05-16T02:55:10.939Z,91.59
2018-05-16T02:56:11.124Z,91.49
2018-05-16T02:57:11.324Z,91.59
2018-05-16T02:58:11.517Z,91.78
2018-05-16T02:59:11.706Z,91.68
2018-05-16T03:00:11.909Z,91.59
2018-05-16T03:01:12.102Z,91.68
2018-05-16T03:02:12.307Z,91.68
2018-05-16T03:03:12.512Z,91.68
2018-05-16T03:04:12.717Z,91.97
2018-05-16T03:05:12.920Z,91.78
2018-05-16T03:06:13.114Z,91.88
2018-05-16T03:07:13.300Z,91.68
2018-05-16T03:08:13.493Z,91.59
2018-05-16T03:09:13.688Z,91.88
2018-05-16T03:10:13.881Z,91.78
2018-05-16T03:11:14.068Z,91.78
2018-05-16T03:12:14.247Z,91.59
2018-05-16T03:13:14.477Z,92.45
2018-05-16T03:14:14.540Z,92.35
2018-05-16T03:15:14.729Z,92.35
2018-05-16T03:16:14.916Z,92.64
2018-05-16T03:17:15.091Z,92.35
2018-05-16T03:18:15.286Z,91.68
2018-05-16T03:19:15.499Z,91.63
2018-05-16T03:20:15.688Z,91.88
2018-05-16T03:21:15.891Z,91.44
2018-05-16T03:22:16.084Z,91.53
2018-05-16T03:23:16.291Z,91.53
2018-05-16T03:24:16.482Z,91.59
2018-05-16T03:25:16.701Z,91.49
2018-05-16T03:26:16.884Z,91.49
2018-05-16T03:27:17.064Z,91.39
2018-05-16T03:28:17.264Z,91.49
2018-05-16T03:29:17.452Z,91.68
2018-05-16T03:30:17.661Z,91.68
2018-05-16T03:31:17.933Z,91.59
2018-05-16T03:32:17.985Z,91.59
2018-05-16T03:33:18.161Z,91.88
2018-05-16T03:34:18.361Z,92.25
2018-05-16T03:35:18.543Z,92.35
2018-05-16T03:36:18.739Z,92.54
2018-05-16T03:37:18.934Z,92.45
2018-05-16T03:38:19.149Z,92.54
2018-05-16T03:39:19.378Z,92.45
2018-05-16T03:40:19.557Z,92.93
2018-05-16T03:41:19.743Z,93.02
2018-05-16T03:42:19.962Z,92.93
2018-05-16T03:43:20.133Z,92.74
2018-05-16T03:44:20.322Z,93.21
2018-05-16T03:45:20.978Z,92.45
2018-05-16T03:46:21.460Z,92.35
2018-05-16T03:47:21.401Z,92.35
2018-05-16T03:48:21.151Z,92.54
2018-05-16T03:49:21.309Z,92.64
2018-05-16T03:50:21.506Z,92.50
2018-05-16T03:51:21.709Z,93.07
2018-05-16T03:52:21.886Z,92.97
2018-05-16T03:53:22.067Z,92.69
2018-05-16T03:54:22.278Z,92.69
2018-05-16T03:55:22.514Z,93.65
2018-05-16T03:56:22.571Z,92.79
2018-05-16T03:57:22.755Z,92.97
2018-05-16T03:58:22.925Z,93.65
2018-05-16T03:59:23.104Z,92.88
2018-05-16T04:00:23.277Z,92.69
2018-05-16T04:01:23.457Z,92.69
2018-05-16T04:02:23.643Z,92.88
2018-05-16T04:03:23.823Z,92.97
2018-05-16T04:04:24.007Z,92.40
2018-05-16T04:05:24.168Z,92.21
2018-05-16T04:06:24.349Z,92.79
2018-05-16T04:07:24.521Z,93.26
2018-05-16T04:08:24.702Z,93.26
2018-05-16T04:09:24.888Z,93.26
2018-05-16T04:10:25.116Z,93.07
2018-05-16T04:11:25.264Z,93.74
2018-05-16T04:12:25.435Z,93.26
2018-05-16T04:13:25.676Z,93.84
2018-05-16T04:14:25.794Z,93.16
2018-05-16T04:15:25.977Z,93.65
2018-05-16T04:16:26.155Z,93.26
2018-05-16T04:17:26.332Z,93.74
2018-05-16T04:18:26.515Z,93.36
2018-05-16T04:19:27.318Z,93.55
2018-05-16T04:20:28.758Z,93.07
2018-05-16T04:21:29.066Z,93.26
2018-05-16T04:22:28.490Z,93.36
2018-05-16T04:23:27.322Z,93.26
2018-05-16T04:24:27.523Z,93.50
2018-05-16T04:25:27.695Z,93.40
2018-05-16T04:26:27.873Z,93.69
2018-05-16T04:27:28.157Z,93.31
2018-05-16T04:28:28.213Z,93.12
2018-05-16T04:29:28.399Z,92.83
2018-05-16T04:30:28.578Z,93.50
2018-05-16T04:31:28.765Z,93.50
2018-05-16T04:32:28.959Z,93.40
2018-05-16T04:33:29.153Z,93.40
2018-05-16T04:34:29.333Z,93.69
2018-05-16T04:35:29.543Z,92.74
2018-05-16T04:36:31.375Z,92.93
2018-05-16T04:37:29.925Z,93.02
2018-05-16T04:38:30.112Z,93.31
2018-05-16T04:39:30.288Z,93.02
2018-05-16T04:40:30.466Z,93.12
2018-05-16T04:41:30.674Z,92.74
2018-05-16T04:42:30.858Z,93.02
2018-05-16T04:43:31.061Z,92.54
2018-05-16T04:44:31.272Z,91.83
2018-05-16T04:45:31.465Z,91.63
2018-05-16T04:46:31.656Z,92.21
2018-05-16T04:47:31.856Z,92.49
2018-05-16T04:48:32.030Z,92.21
2018-05-16T04:49:32.208Z,92.40
2018-05-16T04:50:32.406Z,92.88
2018-05-16T04:51:32.574Z,92.97
2018-05-16T04:52:32.753Z,92.78
2018-05-16T04:53:32.930Z,93.26
2018-05-16T04:54:33.614Z,93.55
2018-05-16T04:55:33.312Z,92.59
2018-05-16T04:56:33.496Z,93.26
2018-05-16T04:57:33.677Z,92.59
2018-05-16T04:58:33.902Z,92.49
2018-05-16T04:59:33.978Z,93.16
2018-05-16T05:00:34.167Z,92.69
2018-05-16T05:01:34.350Z,92.97
2018-05-16T05:02:34.553Z,92.69
2018-05-16T05:03:34.726Z,92.97
2018-05-16T05:04:34.943Z,92.78
2018-05-16T05:05:35.100Z,92.59
2018-05-16T05:06:35.284Z,91.44
2018-05-16T05:07:35.478Z,91.44
2018-05-16T05:08:35.680Z,90.67
2018-05-16T05:09:35.907Z,90.67
2018-05-16T05:10:36.078Z,90.96
2018-05-16T05:11:36.263Z,90.87
2018-05-16T05:12:36.547Z,90.20
2018-05-16T05:13:36.700Z,90.10
2018-05-16T05:14:36.796Z,90.39
2018-05-16T05:15:36.886Z,91.16
2018-05-16T05:16:37.586Z,91.83
2018-05-16T05:17:37.187Z,90.82
2018-05-16T05:18:37.388Z,90.53
2018-05-16T05:19:37.573Z,90.24
2018-05-16T05:20:37.572Z,90.05
2018-05-16T05:21:38.116Z,89.38
2018-05-16T05:22:37.942Z,89.38
2018-05-16T05:23:39.050Z,89.23
2018-05-16T05:24:38.356Z,88.95
2018-05-16T05:25:38.623Z,88.76
2018-05-16T05:26:38.741Z,89.04
2018-05-16T05:27:38.953Z,88.56
2018-05-16T05:28:39.240Z,87.99
2018-05-16T05:29:39.162Z,87.99
2018-05-16T05:30:39.365Z,87.80
2018-05-16T05:31:39.551Z,87.03
2018-05-16T05:32:39.724Z,86.65
2018-05-16T05:33:39.897Z,86.84
2018-05-16T05:34:40.109Z,87.51
2018-05-16T05:35:40.311Z,87.03
2018-05-16T05:36:40.469Z,87.03
2018-05-16T05:37:40.672Z,86.94
2018-05-16T05:38:41.419Z,87.03
2018-05-16T05:39:40.988Z,86.94
2018-05-16T05:40:41.181Z,87.13
2018-05-16T05:41:41.497Z,87.80
2018-05-16T05:42:41.554Z,87.80
2018-05-16T05:43:41.731Z,87.70
2018-05-16T05:44:41.912Z,87.70
2018-05-16T05:45:42.105Z,87.70
2018-05-16T05:46:42.282Z,86.60
2018-05-16T05:47:42.453Z,85.25
2018-05-16T05:48:42.636Z,85.45
2018-05-16T05:49:42.821Z,85.64
2018-05-16T05:50:43.008Z,85.16
2018-05-16T05:51:43.192Z,85.93
2018-05-16T05:52:43.435Z,85.88
2018-05-16T05:53:43.564Z,85.01
2018-05-16T05:54:43.756Z,84.15
2018-05-16T05:55:43.943Z,83.95
2018-05-16T05:56:44.115Z,83.86
2018-05-16T05:57:44.292Z,84.05
2018-05-16T05:58:44.485Z,83.95
2018-05-16T05:59:44.685Z,83.86
2018-05-16T06:00:44.860Z,84.00
2018-05-16T06:01:45.041Z,82.85
2018-05-16T06:02:45.220Z,81.93
2018-05-16T06:03:45.399Z,81.54
2018-05-16T06:04:45.737Z,80.91
2018-05-16T06:05:45.944Z,80.05
2018-05-16T06:06:48.188Z,80.05
2018-05-16T06:07:46.145Z,80.24
2018-05-16T06:08:46.428Z,80.15
2018-05-16T06:09:46.499Z,80.05
2018-05-16T06:10:46.687Z,78.52
2018-05-16T06:11:46.914Z,77.94
2018-05-16T06:12:47.650Z,78.61
2018-05-16T06:13:47.840Z,78.13
2018-05-16T06:14:47.924Z,77.36
2018-05-16T06:15:47.944Z,77.36
2018-05-16T06:16:47.840Z,77.17
2018-05-16T06:17:48.433Z,77.17
2018-05-16T06:18:48.571Z,77.56
2018-05-16T06:19:48.761Z,77.65
2018-05-16T06:20:48.435Z,78.38
2018-05-16T06:21:48.623Z,78.86
2018-05-16T06:22:48.833Z,79.24
2018-05-16T06:23:49.020Z,79.82
2018-05-16T06:24:49.217Z,80.83
2018-05-16T06:25:49.394Z,81.02
2018-05-16T06:26:49.565Z,80.74
2018-05-16T06:27:49.760Z,81.02
2018-05-16T06:28:49.954Z,80.45
2018-05-16T06:29:50.133Z,80.07
2018-05-16T06:30:50.313Z,79.78
2018-05-16T06:31:50.491Z,80.68
2018-05-16T06:32:50.698Z,79.91
2018-05-16T06:33:50.853Z,80.20
2018-05-16T06:34:51.026Z,80.68
2018-05-16T06:35:51.208Z,80.97
2018-05-16T06:36:51.391Z,81.64
2018-05-16T06:37:51.572Z,80.49
2018-05-16T06:38:51.749Z,79.53
2018-05-16T06:39:51.926Z,79.53
2018-05-16T06:40:52.109Z,80.01
2018-05-16T06:41:52.296Z,79.14
2018-05-16T06:42:52.465Z,80.68
2018-05-16T06:43:52.655Z,81.26
2018-05-16T06:44:53.656Z,81.84
2018-05-16T06:45:56.163Z,81.35
2018-05-16T06:46:53.172Z,81.16
2018-05-16T06:47:53.369Z,81.51
2018-05-16T06:48:53.723Z,80.35
2018-05-16T06:49:53.656Z,80.45
2018-05-16T06:50:53.831Z,80.83
2018-05-16T06:51:54.009Z,80.30
2018-05-16T06:52:54.180Z,79.86
2018-05-16T06:53:54.359Z,76.19
2018-05-16T06:54:54.554Z,74.75
2018-05-16T06:55:54.835Z,75.75
2018-05-16T06:56:54.880Z,74.25
2018-05-16T06:57:55.056Z,73.35
2018-05-16T06:58:55.239Z,73.98
2018-05-16T06:59:55.419Z,74.75
2018-05-16T07:00:55.613Z,75.48
2018-05-16T07:01:55.789Z,75.23
2018-05-16T07:02:56.065Z,74.02
2018-05-16T07:03:56.209Z,71.30
2018-05-16T07:04:56.298Z,69.22
2018-05-16T07:05:56.486Z,68.90
2018-05-16T07:06:56.661Z,68.96
2018-05-16T07:07:56.841Z,67.71
2018-05-16T07:08:57.042Z,68.84
2018-05-16T07:09:57.206Z,69.47
2018-05-16T07:10:57.383Z,69.22
2018-05-16T07:11:57.557Z,68.60
2018-05-16T07:12:57.729Z,68.93
2018-05-16T07:13:57.905Z,68.44
2018-05-16T07:14:58.088Z,69.18
2018-05-16T07:15:58.272Z,68.76
2018-05-16T07:16:58.453Z,69.53
2018-05-16T07:17:58.637Z,70.75
2018-05-16T07:18:58.816Z,70.84
2018-05-16T07:19:59.004Z,72.06
2018-05-16T07:20:59.181Z,73.37
2018-05-16T07:21:59.361Z,73.27
2018-05-16T07:22:59.533Z,74.13
2018-05-16T07:23:59.708Z,74.33
2018-05-16T07:24:59.887Z,76.69
2018-05-16T07:26:00.071Z,76.88
2018-05-16T07:27:00.250Z,77.04
2018-05-16T07:28:00.429Z,76.84
2018-05-16T07:29:00.620Z,76.17
2018-05-16T07:30:00.799Z,76.27
2018-05-16T07:31:00.973Z,76.98
2018-05-16T07:32:01.160Z,77.33
2018-05-16T07:33:01.353Z,77.65
2018-05-16T07:34:01.530Z,77.36
2018-05-16T07:35:04.392Z,76.39
2018-05-16T07:36:01.863Z,73.98
2018-05-16T07:37:02.042Z,73.69
2018-05-16T07:38:04.552Z,72.83
2018-05-16T07:39:02.343Z,72.54
2018-05-16T07:40:02.526Z,70.95
2018-05-16T07:41:02.740Z,69.70
2018-05-16T07:42:03.273Z,66.27
2018-05-16T07:43:03.125Z,62.54
2018-05-16T07:44:03.302Z,61.47
2018-05-16T07:45:03.481Z,62.51
2018-05-16T07:46:03.680Z,63.44
2018-05-16T07:47:03.883Z,64.08
2018-05-16T07:48:04.039Z,64.92
2018-05-16T07:49:04.260Z,66.14
2018-05-16T07:50:04.331Z,65.63
2018-05-16T07:51:04.513Z,66.97
2018-05-16T07:52:04.699Z,66.88
2018-05-16T07:53:04.883Z,67.13
2018-05-16T07:54:05.062Z,63.79
2018-05-16T07:55:05.665Z,65.01
2018-05-16T07:56:05.466Z,64.69
2018-05-16T07:57:05.573Z,65.24
2018-05-16T07:58:05.746Z,62.28
2018-05-16T07:59:05.929Z,63.02
2018-05-16T08:00:06.109Z,63.28
2018-05-16T08:01:06.302Z,63.67
2018-05-16T08:02:06.485Z,64.53
2018-05-16T08:03:06.738Z,64.34
2018-05-16T08:04:06.850Z,63.57
2018-05-16T08:05:07.045Z,64.92
2018-05-16T08:06:07.245Z,64.82
2018-05-16T08:07:07.425Z,63.79
2018-05-16T08:08:07.614Z,58.14
2018-05-16T08:09:07.785Z,53.36
2018-05-16T08:10:07.970Z,51.25
2018-05-16T08:11:08.199Z,50.26
2018-05-16T08:12:08.385Z,52.00
2018-05-16T08:13:08.704Z,55.71
2018-05-16T08:14:08.766Z,56.56
2018-05-16T08:15:08.968Z,58.19
2018-05-16T08:16:09.152Z,59.23
2018-05-16T08:17:09.330Z,59.35
2018-05-16T08:18:09.526Z,60.03
2018-05-16T08:19:09.722Z,59.61
2018-05-16T08:20:10.335Z,60.16
2018-05-16T08:21:10.187Z,61.38
2018-05-16T08:22:11.138Z,60.80
2018-05-16T08:23:11.008Z,55.34
2018-05-16T08:24:10.515Z,52.00
2018-05-16T08:25:10.973Z,50.41
2018-05-16T08:26:10.961Z,47.93
2018-05-16T08:27:10.905Z,45.77
2018-05-16T08:28:11.092Z,43.48
2018-05-16T08:29:11.301Z,45.04
2018-05-16T08:30:11.493Z,45.97
2018-05-16T08:31:11.701Z,48.39
2018-05-16T08:32:11.876Z,49.92
2018-05-16T08:33:12.073Z,52.41
2018-05-16T08:34:12.255Z,51.90
2018-05-16T08:35:12.434Z,50.82
2018-05-16T08:36:12.635Z,51.32
2018-05-16T08:37:12.822Z,47.40
2018-05-16T08:38:12.999Z,48.83
2018-05-16T08:39:13.232Z,50.60
2018-05-16T08:40:13.414Z,52.07
2018-05-16T08:41:13.590Z,53.49
2018-05-16T08:42:13.781Z,56.36
2018-05-16T08:43:13.981Z,56.74
2018-05-16T08:44:14.175Z,57.81
2018-05-16T08:45:14.383Z,59.55
2018-05-16T08:46:14.576Z,58.65
2018-05-16T08:47:14.768Z,58.75
2018-05-16T08:48:14.970Z,58.33
2018-05-16T08:49:15.129Z,59.23
2018-05-16T08:50:15.326Z,56.98
2018-05-16T08:51:15.507Z,53.55
2018-05-16T08:52:15.695Z,51.52
2018-05-16T08:53:15.881Z,50.98
2018-05-16T08:54:16.068Z,52.12
2018-05-16T08:55:19.189Z,53.45
2018-05-16T08:56:16.418Z,53.35
2018-05-16T08:57:16.604Z,52.89
2018-05-16T08:58:16.875Z,51.35
2018-05-16T08:59:16.990Z,50.60
2018-05-16T09:00:18.537Z,50.57
2018-05-16T09:01:17.370Z,53.06
2018-05-16T09:02:17.552Z,52.48
2018-05-16T09:03:17.756Z,52.48
2018-05-16T09:04:17.944Z,55.07
2018-05-16T09:05:18.137Z,55.16
2018-05-16T09:06:18.323Z,53.01
2018-05-16T09:07:18.503Z,53.49
2018-05-16T09:08:18.694Z,52.75
2018-05-16T09:09:18.889Z,50.70
2018-05-16T09:10:19.088Z,49.00
2018-05-16T09:11:19.294Z,49.00
2018-05-16T09:12:19.453Z,48.15
2018-05-16T09:13:19.653Z,48.47
2018-05-16T09:14:19.832Z,48.18
2018-05-16T09:15:20.022Z,47.35
2018-05-16T09:16:20.210Z,47.45
2018-05-16T09:17:20.484Z,46.48
2018-05-16T09:18:20.577Z,47.13
2018-05-16T09:19:20.768Z,48.18
2018-05-16T09:20:20.957Z,48.93
2018-05-16T09:21:21.147Z,47.33
2018-05-16T09:22:21.339Z,47.02
2018-05-16T09:23:21.526Z,48.93
2018-05-16T09:24:21.723Z,51.06
2018-05-16T09:25:21.892Z,52.61
2018-05-16T09:26:22.090Z,52.80
2018-05-16T09:27:22.270Z,52.05
2018-05-16T09:28:22.467Z,50.14
2018-05-16T09:29:22.677Z,50.52
2018-05-16T09:30:22.874Z,51.25
2018-05-16T09:31:23.058Z,51.25
2018-05-16T09:32:23.244Z,50.67
2018-05-16T09:33:23.422Z,50.28
2018-05-16T09:34:23.610Z,51.28
2018-05-16T09:35:23.794Z,53.28
2018-05-16T09:36:23.974Z,54.05
2018-05-16T09:37:24.157Z,52.70
2018-05-16T09:38:24.343Z,52.19
2018-05-16T09:39:24.665Z,52.67
2018-05-16T09:40:24.745Z,53.19
2018-05-16T09:41:24.844Z,51.32
2018-05-16T09:42:25.032Z,49.32
2018-05-16T09:43:25.212Z,48.97
2018-05-16T09:44:25.412Z,46.98
2018-05-16T09:45:25.591Z,44.02
2018-05-16T09:46:25.790Z,42.76
2018-05-16T09:47:25.974Z,43.44
2018-05-16T09:48:26.159Z,43.66
2018-05-16T09:49:26.385Z,44.73
2018-05-16T09:50:26.479Z,44.54
2018-05-16T09:51:26.691Z,44.13
2018-05-16T09:52:26.877Z,44.90
2018-05-16T09:53:27.251Z,44.90
2018-05-16T09:54:27.283Z,44.95
2018-05-16T09:55:27.484Z,44.75
2018-05-16T09:56:27.673Z,44.05
2018-05-16T09:57:27.862Z,44.37
2018-05-16T09:58:28.053Z,43.40
2018-05-16T09:59:28.242Z,42.99
2018-05-16T10:00:28.426Z,45.00
2018-05-16T10:01:28.646Z,45.27
2018-05-16T10:02:28.812Z,46.58
2018-05-16T10:03:28.989Z,47.45
2018-05-16T10:04:29.170Z,48.22
2018-05-16T10:05:29.355Z,49.10
2018-05-16T10:06:29.530Z,46.41
2018-05-16T10:07:29.763Z,47.09
2018-05-16T10:08:29.836Z,48.44
2018-05-16T10:09:30.015Z,47.69
2018-05-16T10:10:30.209Z,46.67
2018-05-16T10:11:31.460Z,44.81
2018-05-16T10:12:30.525Z,45.56
2018-05-16T10:13:30.709Z,46.24
2018-05-16T10:14:30.892Z,47.40
2018-05-16T10:15:31.076Z,45.17
2018-05-16T10:16:31.277Z,44.40
2018-05-16T10:17:31.453Z,44.13
2018-05-16T10:18:31.645Z,45.87
2018-05-16T10:19:31.828Z,47.13
2018-05-16T10:20:32.010Z,45.99
2018-05-16T10:21:32.191Z,44.75
2018-05-16T10:22:32.377Z,44.90
2018-05-16T10:23:32.564Z,45.78
2018-05-16T10:24:32.747Z,46.33
2018-05-16T10:25:32.927Z,47.19
2018-05-16T10:26:33.114Z,44.68
2018-05-16T10:27:33.301Z,45.54
2018-05-16T10:28:33.493Z,45.83
2018-05-16T10:29:33.691Z,47.47
2018-05-16T10:30:33.883Z,45.64
2018-05-16T10:31:34.065Z,46.53
2018-05-16T10:32:34.251Z,47.50
2018-05-16T10:33:34.430Z,46.45
2018-05-16T10:34:34.706Z,44.71
2018-05-16T10:35:34.885Z,45.99
2018-05-16T10:36:34.928Z,46.38
2018-05-16T10:37:35.152Z,44.73
2018-05-16T10:38:35.352Z,44.03
2018-05-16T10:39:35.548Z,44.88
2018-05-16T10:40:35.741Z,46.58
2018-05-16T10:41:35.943Z,48.49
2018-05-16T10:42:36.118Z,50.31
2018-05-16T10:43:36.302Z,50.50
2018-05-16T10:44:36.484Z,51.37
2018-05-16T10:45:36.679Z,51.95
2018-05-16T10:46:38.592Z,52.05
2018-05-16T10:47:37.455Z,52.63
2018-05-16T10:48:38.538Z,49.73
2018-05-16T10:49:37.404Z,49.63
2018-05-16T10:50:37.608Z,50.14
2018-05-16T10:51:37.961Z,50.65
2018-05-16T10:52:38.125Z,51.35
2018-05-16T10:53:38.100Z,48.61
2018-05-16T10:54:38.432Z,46.60
2018-05-16T10:55:42.812Z,47.86
2018-05-16T10:56:39.993Z,48.32
2018-05-16T10:57:40.234Z,48.74
2018-05-16T10:58:41.006Z,49.19
2018-05-16T10:59:40.200Z,48.25
2018-05-16T11:00:39.337Z,49.12
2018-05-16T11:01:39.530Z,48.25
2018-05-16T11:02:39.856Z,45.95
2018-05-16T11:03:39.910Z,46.92
2018-05-16T11:04:40.101Z,47.50
2018-05-16T11:05:40.620Z,45.81
2018-05-16T11:06:40.398Z,44.06
2018-05-16T11:07:40.575Z,45.30
2018-05-16T11:08:40.762Z,47.11
2018-05-16T11:09:40.951Z,49.12
2018-05-16T11:10:41.145Z,48.54
2018-05-16T11:11:41.331Z,48.35
2018-05-16T11:12:41.519Z,46.68
2018-05-16T11:13:41.720Z,48.03
2018-05-16T11:14:41.906Z,47.26
2018-05-16T11:15:42.091Z,48.81
2018-05-16T11:16:42.372Z,50.16
2018-05-16T11:17:42.418Z,50.57
2018-05-16T11:18:42.680Z,50.57
2018-05-16T11:19:42.824Z,49.02
2018-05-16T11:20:43.006Z,49.00
2018-05-16T11:21:43.191Z,48.81
2018-05-16T11:22:43.367Z,48.71
2018-05-16T11:23:43.614Z,49.27
2018-05-16T11:24:43.667Z,48.97
2018-05-16T11:25:43.915Z,49.95
2018-05-16T11:26:43.971Z,52.45
2018-05-16T11:27:44.275Z,54.39
2018-05-16T11:28:44.443Z,55.07
2018-05-16T11:29:44.514Z,53.59
2018-05-16T11:30:44.704Z,51.82
2018-05-16T11:31:44.895Z,51.92
2018-05-16T11:32:45.081Z,52.40
2018-05-16T11:33:45.269Z,54.82
2018-05-16T11:34:45.444Z,54.33
2018-05-16T11:35:45.627Z,54.98
2018-05-16T11:36:45.834Z,55.76
2018-05-16T11:37:46.404Z,55.08
2018-05-16T11:38:46.437Z,55.66
2018-05-16T11:39:48.242Z,55.66
2018-05-16T11:40:48.701Z,55.76
2018-05-16T11:41:46.999Z,54.98
2018-05-16T11:42:46.949Z,54.79
2018-05-16T11:43:48.636Z,54.79
2018-05-16T11:44:47.207Z,58.65
2018-05-16T11:45:47.287Z,58.17
2018-05-16T11:46:50.743Z,55.94
2018-05-16T11:47:47.742Z,55.85
2018-05-16T11:48:48.313Z,53.73
2018-05-16T11:49:47.948Z,53.63
2018-05-16T11:50:49.146Z,55.94
2018-05-16T11:51:49.537Z,56.81
2018-05-16T11:52:49.782Z,56.74
2018-05-16T11:53:50.394Z,57.81
2018-05-16T11:54:50.076Z,58.10
2018-05-16T11:55:51.651Z,59.55
2018-05-16T11:56:50.496Z,57.23
2018-05-16T11:57:50.289Z,57.52
2018-05-16T11:58:50.928Z,56.65
2018-05-16T11:59:51.139Z,55.98
2018-05-16T12:00:51.610Z,56.65
2018-05-16T12:01:51.253Z,57.35
2018-05-16T12:02:52.157Z,57.84
2018-05-16T12:03:52.863Z,56.87
2018-05-16T12:04:51.747Z,53.88
2018-05-16T12:05:52.543Z,53.49
2018-05-16T12:06:53.387Z,54.17
2018-05-16T12:07:54.001Z,54.94
2018-05-16T12:08:55.392Z,55.07
2018-05-16T12:09:53.597Z,55.65
2018-05-16T12:10:54.931Z,56.90
2018-05-16T12:11:55.122Z,55.07
2018-05-16T12:12:55.295Z,55.16
2018-05-16T12:13:54.566Z,56.71
2018-05-16T12:14:55.432Z,56.80
2018-05-16T12:15:55.704Z,56.03
2018-05-16T12:16:57.605Z,53.52
2018-05-16T12:17:55.376Z,53.33
2018-05-16T12:18:55.489Z,56.03
2018-05-16T12:19:54.195Z,53.69
2018-05-16T12:20:55.282Z,53.59
2018-05-16T12:21:56.309Z,54.58
2018-05-16T12:22:54.821Z,54.39
2018-05-16T12:23:55.534Z,54.77
2018-05-16T12:24:55.747Z,53.03
2018-05-16T12:25:55.029Z,54.49
2018-05-16T12:26:55.712Z,56.03
2018-05-16T12:27:55.686Z,56.10
2018-05-16T12:28:56.141Z,58.42
2018-05-16T12:29:56.679Z,58.00
2018-05-16T12:30:56.399Z,57.71
2018-05-16T12:31:57.340Z,57.78
2018-05-16T12:32:55.402Z,59.48
2018-05-16T12:33:55.584Z,60.55
2018-05-16T12:34:55.778Z,62.83
2018-05-16T12:35:55.984Z,66.39
2018-05-16T12:36:56.163Z,69.93
2018-05-16T12:37:56.353Z,71.66
2018-05-16T12:38:56.538Z,71.08
2018-05-16T12:39:56.709Z,72.11
2018-05-16T12:40:56.895Z,72.20
2018-05-16T12:41:58.493Z,71.34
2018-05-16T12:42:57.321Z,72.49
2018-05-16T12:43:57.399Z,73.26
2018-05-16T12:44:57.578Z,75.28
2018-05-16T12:45:57.766Z,74.67
2018-05-16T12:46:57.958Z,75.05
2018-05-16T12:47:58.126Z,75.63
2018-05-16T12:48:58.330Z,76.59
2018-05-16T12:49:58.505Z,76.98
2018-05-16T12:51:00.750Z,76.59
2018-05-16T12:51:58.844Z,76.69
2018-05-16T12:52:59.038Z,77.90
2018-05-16T12:53:59.234Z,77.51
2018-05-16T12:54:59.425Z,77.90